sensor_id;sensor_type;location;lat;lon;timestamp;temperature;humidity
16243;DHT22;11719;51.052;6.982;2024-01-15T00:01:31;8.80;99.90
16243;DHT22;11719;51.052;6.982;2024-01-15T00:03:57;8.80;99.90
16243;DHT22;11719;51.052;6.982;2024-01-15T00:06:22;9.00;99.90
16243;DHT22;11719;51.052;6.982;2024-01-15T00:08:48;9.10;99.90
16243;DHT22;11719;51.052;6.982;2024-01-15T00:11:14;9.10;99.90
16243;DHT22;11719;51.052;6.982;2024-01-15T00:13:42;9.00;99.90
16243;DHT22;11719;51.052;6.982;2024-01-15T00:16:11;9.20;99.90
16243;DHT22;11719;51.052;6.982;2024-01-15T00:18:37;9.10;99.90
16243;DHT22;11719;51.052;6.982;2024-01-15T00:21:03;9.10;99.90
16243;DHT22;11719;51.052;6.982;2024-01-15T00:23:30;9.30;99.90
16243;DHT22;11719;51.052;6.982;2024-01-15T00:25:56;9.10;99.90
16243;DHT22;11719;51.052;6.982;2024-01-15T00:28:21;9.10;99.90
16243;DHT22;11719;51.052;6.982;2024-01-15T00:30:50;9.20;99.90
16243;DHT22;11719;51.052;6.982;2024-01-15T00:33:16;9.20;99.90
16243;DHT22;11719;51.052;6.982;2024-01-15T00:35:42;9.10;99.90
16243;DHT22;11719;51.052;6.982;2024-01-15T00:38:10;9.10;99.90
16243;DHT22;11719;51.052;6.982;2024-01-15T00:40:36;8.90;99.90
16243;DHT22;11719;51.052;6.982;2024-01-15T00:43:02;9.00;99.90
16243;DHT22;11719;51.052;6.982;2024-01-15T00:45:28;8.90;99.90
16243;DHT22;11719;51.052;6.982;2024-01-15T00:47:53;8.80;99.90
16243;DHT22;11719;51.052;6.982;2024-01-15T00:50:21;8.50;99.90
16243;DHT22;11719;51.052;6.982;2024-01-15T00:52:47;8.50;99.90
16243;DHT22;11719;51.052;6.982;2024-01-15T00:55:13;8.70;99.90
16243;DHT22;11719;51.052;6.982;2024-01-15T00:57:42;8.60;99.90
16243;DHT22;11719;51.052;6.982;2024-01-15T01:00:08;8.70;99.90
16243;DHT22;11719;51.052;6.982;2024-01-15T01:02:37;8.70;99.90
16243;DHT22;11719;51.052;6.982;2024-01-15T01:05:03;8.90;99.90
16243;DHT22;11719;51.052;6.982;2024-01-15T01:07:29;8.80;99.90
16243;DHT22;11719;51.052;6.982;2024-01-15T01:09:55;8.90;99.90
16243;DHT22;11719;51.052;6.982;2024-01-15T01:12:21;9.10;99.90
16243;DHT22;11719;51.052;6.982;2024-01-15T01:14:46;8.70;99.90
16243;DHT22;11719;51.052;6.982;2024-01-15T01:17:12;9.10;99.90
16243;DHT22;11719;51.052;6.982;2024-01-15T01:19:38;9.30;99.90
16243;DHT22;11719;51.052;6.982;2024-01-15T01:22:04;9.40;99.90
16243;DHT22;11719;51.052;6.982;2024-01-15T01:24:30;9.30;99.90
16243;DHT22;11719;51.052;6.982;2024-01-15T01:26:56;9.40;99.90
16243;DHT22;11719;51.052;6.982;2024-01-15T01:29:22;9.20;99.90
16243;DHT22;11719;51.052;6.982;2024-01-15T01:31:48;9.30;99.90
16243;DHT22;11719;51.052;6.982;2024-01-15T01:34:15;9.40;99.90
16243;DHT22;11719;51.052;6.982;2024-01-15T01:36:42;9.50;99.90
16243;DHT22;11719;51.052;6.982;2024-01-15T01:39:08;9.20;99.90
16243;DHT22;11719;51.052;6.982;2024-01-15T01:41:35;9.20;99.90
16243;DHT22;11719;51.052;6.982;2024-01-15T01:44:00;9.30;99.90
16243;DHT22;11719;51.052;6.982;2024-01-15T01:46:28;9.30;99.90
16243;DHT22;11719;51.052;6.982;2024-01-15T01:48:55;9.30;99.90
16243;DHT22;11719;51.052;6.982;2024-01-15T01:51:25;9.50;99.90
16243;DHT22;11719;51.052;6.982;2024-01-15T01:53:51;9.60;99.90
16243;DHT22;11719;51.052;6.982;2024-01-15T01:56:17;9.40;99.90
16243;DHT22;11719;51.052;6.982;2024-01-15T01:58:44;9.40;99.90
16243;DHT22;11719;51.052;6.982;2024-01-15T02:01:11;9.50;99.90
16243;DHT22;11719;51.052;6.982;2024-01-15T02:03:39;9.40;99.90
16243;DHT22;11719;51.052;6.982;2024-01-15T02:06:05;9.40;99.90
16243;DHT22;11719;51.052;6.982;2024-01-15T02:08:31;9.40;99.90
16243;DHT22;11719;51.052;6.982;2024-01-15T02:10:57;9.10;99.90
16243;DHT22;11719;51.052;6.982;2024-01-15T02:13:23;9.00;99.90
16243;DHT22;11719;51.052;6.982;2024-01-15T02:15:49;8.70;99.90
16243;DHT22;11719;51.052;6.982;2024-01-15T02:18:15;8.60;99.90
16243;DHT22;11719;51.052;6.982;2024-01-15T02:20:41;8.40;99.90
16243;DHT22;11719;51.052;6.982;2024-01-15T02:23:14;8.50;99.90
16243;DHT22;11719;51.052;6.982;2024-01-15T02:25:45;8.50;99.90
16243;DHT22;11719;51.052;6.982;2024-01-15T02:28:13;8.30;99.90
16243;DHT22;11719;51.052;6.982;2024-01-15T02:30:42;8.30;99.90
16243;DHT22;11719;51.052;6.982;2024-01-15T02:33:09;7.90;99.90
16243;DHT22;11719;51.052;6.982;2024-01-15T02:35:36;7.80;99.90
16243;DHT22;11719;51.052;6.982;2024-01-15T02:38:03;7.50;99.90
16243;DHT22;11719;51.052;6.982;2024-01-15T02:40:31;7.50;99.90
16243;DHT22;11719;51.052;6.982;2024-01-15T02:42:59;7.60;99.90
16243;DHT22;11719;51.052;6.982;2024-01-15T02:45:25;7.80;99.90
16243;DHT22;11719;51.052;6.982;2024-01-15T02:47:51;8.00;99.90
16243;DHT22;11719;51.052;6.982;2024-01-15T02:50:17;8.00;99.90
16243;DHT22;11719;51.052;6.982;2024-01-15T02:52:43;8.10;99.90
16243;DHT22;11719;51.052;6.982;2024-01-15T02:55:09;8.30;99.90
16243;DHT22;11719;51.052;6.982;2024-01-15T02:57:34;8.30;99.90
16243;DHT22;11719;51.052;6.982;2024-01-15T03:00:00;8.50;99.90
16243;DHT22;11719;51.052;6.982;2024-01-15T03:02:26;8.70;99.90
16243;DHT22;11719;51.052;6.982;2024-01-15T03:04:52;8.50;99.90
16243;DHT22;11719;51.052;6.982;2024-01-15T03:07:18;8.40;99.90
16243;DHT22;11719;51.052;6.982;2024-01-15T03:09:44;8.30;99.90
16243;DHT22;11719;51.052;6.982;2024-01-15T03:12:10;8.40;99.90
16243;DHT22;11719;51.052;6.982;2024-01-15T03:14:36;8.60;99.90
16243;DHT22;11719;51.052;6.982;2024-01-15T03:17:02;8.40;99.90
16243;DHT22;11719;51.052;6.982;2024-01-15T03:19:28;8.30;99.90
16243;DHT22;11719;51.052;6.982;2024-01-15T03:21:56;8.10;99.90
16243;DHT22;11719;51.052;6.982;2024-01-15T03:24:26;8.10;99.90
16243;DHT22;11719;51.052;6.982;2024-01-15T03:26:51;8.20;99.90
16243;DHT22;11719;51.052;6.982;2024-01-15T03:29:17;8.30;99.90
16243;DHT22;11719;51.052;6.982;2024-01-15T03:31:43;8.30;99.90
16243;DHT22;11719;51.052;6.982;2024-01-15T03:34:09;8.50;99.90
16243;DHT22;11719;51.052;6.982;2024-01-15T03:36:34;8.60;99.90
16243;DHT22;11719;51.052;6.982;2024-01-15T03:39:00;8.70;99.90
16243;DHT22;11719;51.052;6.982;2024-01-15T03:41:28;8.50;99.90
16243;DHT22;11719;51.052;6.982;2024-01-15T03:43:54;8.50;99.90
16243;DHT22;11719;51.052;6.982;2024-01-15T03:46:19;8.80;99.90
16243;DHT22;11719;51.052;6.982;2024-01-15T03:48:45;8.70;99.90
16243;DHT22;11719;51.052;6.982;2024-01-15T03:51:11;9.00;99.90
16243;DHT22;11719;51.052;6.982;2024-01-15T03:53:38;8.80;99.90
16243;DHT22;11719;51.052;6.982;2024-01-15T03:56:04;8.40;99.90
16243;DHT22;11719;51.052;6.982;2024-01-15T03:58:30;8.60;99.90
16243;DHT22;11719;51.052;6.982;2024-01-15T04:00:56;8.40;99.90
16243;DHT22;11719;51.052;6.982;2024-01-15T04:03:21;8.30;99.90
16243;DHT22;11719;51.052;6.982;2024-01-15T04:05:47;8.30;99.90
16243;DHT22;11719;51.052;6.982;2024-01-15T04:08:13;8.20;99.90
16243;DHT22;11719;51.052;6.982;2024-01-15T04:10:39;8.30;99.90
16243;DHT22;11719;51.052;6.982;2024-01-15T04:13:05;8.50;99.90
16243;DHT22;11719;51.052;6.982;2024-01-15T04:15:30;8.30;99.90
16243;DHT22;11719;51.052;6.982;2024-01-15T04:17:56;8.40;99.90
16243;DHT22;11719;51.052;6.982;2024-01-15T04:20:26;8.60;99.90
16243;DHT22;11719;51.052;6.982;2024-01-15T04:22:52;8.50;99.90
16243;DHT22;11719;51.052;6.982;2024-01-15T04:25:18;8.20;99.90
16243;DHT22;11719;51.052;6.982;2024-01-15T04:27:43;8.40;99.90
16243;DHT22;11719;51.052;6.982;2024-01-15T04:30:10;8.30;99.90
16243;DHT22;11719;51.052;6.982;2024-01-15T04:32:36;8.40;99.90
16243;DHT22;11719;51.052;6.982;2024-01-15T04:35:02;8.30;99.90
16243;DHT22;11719;51.052;6.982;2024-01-15T04:37:28;8.40;99.90
16243;DHT22;11719;51.052;6.982;2024-01-15T04:39:53;8.60;99.90
16243;DHT22;11719;51.052;6.982;2024-01-15T04:42:21;8.70;99.90
16243;DHT22;11719;51.052;6.982;2024-01-15T04:44:47;8.50;99.90
16243;DHT22;11719;51.052;6.982;2024-01-15T04:47:13;8.20;99.90
16243;DHT22;11719;51.052;6.982;2024-01-15T04:49:38;8.10;99.90
16243;DHT22;11719;51.052;6.982;2024-01-15T04:52:04;8.30;99.90
16243;DHT22;11719;51.052;6.982;2024-01-15T04:54:30;8.50;99.90
16243;DHT22;11719;51.052;6.982;2024-01-15T04:56:56;8.70;99.90
16243;DHT22;11719;51.052;6.982;2024-01-15T04:59:22;8.50;99.90
16243;DHT22;11719;51.052;6.982;2024-01-15T05:01:50;8.90;99.90
16243;DHT22;11719;51.052;6.982;2024-01-15T05:04:16;8.90;99.90
16243;DHT22;11719;51.052;6.982;2024-01-15T05:06:45;8.90;99.90
16243;DHT22;11719;51.052;6.982;2024-01-15T05:09:11;9.10;99.90
16243;DHT22;11719;51.052;6.982;2024-01-15T05:11:39;9.30;99.90
16243;DHT22;11719;51.052;6.982;2024-01-15T05:14:05;9.00;99.90
16243;DHT22;11719;51.052;6.982;2024-01-15T05:16:33;9.10;99.90
16243;DHT22;11719;51.052;6.982;2024-01-15T05:18:59;8.80;99.90
16243;DHT22;11719;51.052;6.982;2024-01-15T05:21:24;8.60;99.90
16243;DHT22;11719;51.052;6.982;2024-01-15T05:23:50;8.60;99.90
16243;DHT22;11719;51.052;6.982;2024-01-15T05:26:16;8.10;99.90
16243;DHT22;11719;51.052;6.982;2024-01-15T05:28:42;8.10;99.90
16243;DHT22;11719;51.052;6.982;2024-01-15T05:31:10;8.20;99.90
16243;DHT22;11719;51.052;6.982;2024-01-15T05:33:37;8.30;99.90
16243;DHT22;11719;51.052;6.982;2024-01-15T05:36:03;8.30;99.90
16243;DHT22;11719;51.052;6.982;2024-01-15T05:38:29;8.40;99.90
16243;DHT22;11719;51.052;6.982;2024-01-15T05:40:54;8.40;99.90
16243;DHT22;11719;51.052;6.982;2024-01-15T05:43:20;8.20;99.90
16243;DHT22;11719;51.052;6.982;2024-01-15T05:45:46;8.20;99.90
16243;DHT22;11719;51.052;6.982;2024-01-15T05:48:12;8.00;99.90
16243;DHT22;11719;51.052;6.982;2024-01-15T05:50:38;7.90;99.90
16243;DHT22;11719;51.052;6.982;2024-01-15T05:53:04;8.10;99.90
16243;DHT22;11719;51.052;6.982;2024-01-15T05:55:30;8.20;99.90
16243;DHT22;11719;51.052;6.982;2024-01-15T05:57:56;8.30;99.90
16243;DHT22;11719;51.052;6.982;2024-01-15T06:00:22;8.30;99.90
16243;DHT22;11719;51.052;6.982;2024-01-15T06:02:48;8.30;99.90
16243;DHT22;11719;51.052;6.982;2024-01-15T06:05:15;8.40;99.90
16243;DHT22;11719;51.052;6.982;2024-01-15T06:07:41;8.30;99.90
16243;DHT22;11719;51.052;6.982;2024-01-15T06:10:07;8.00;99.90
16243;DHT22;11719;51.052;6.982;2024-01-15T06:12:33;7.90;99.90
16243;DHT22;11719;51.052;6.982;2024-01-15T06:14:59;8.20;99.90
16243;DHT22;11719;51.052;6.982;2024-01-15T06:17:25;8.30;99.90
16243;DHT22;11719;51.052;6.982;2024-01-15T06:19:51;8.30;99.90
16243;DHT22;11719;51.052;6.982;2024-01-15T06:22:20;8.10;99.90
16243;DHT22;11719;51.052;6.982;2024-01-15T06:24:45;7.90;99.90
16243;DHT22;11719;51.052;6.982;2024-01-15T06:27:11;7.60;99.90
16243;DHT22;11719;51.052;6.982;2024-01-15T06:29:38;7.60;99.90
16243;DHT22;11719;51.052;6.982;2024-01-15T06:32:07;7.70;99.90
16243;DHT22;11719;51.052;6.982;2024-01-15T06:34:32;7.60;99.90
16243;DHT22;11719;51.052;6.982;2024-01-15T06:36:58;7.90;99.90
16243;DHT22;11719;51.052;6.982;2024-01-15T06:39:24;8.10;99.90
16243;DHT22;11719;51.052;6.982;2024-01-15T06:41:50;8.20;99.90
16243;DHT22;11719;51.052;6.982;2024-01-15T06:44:16;8.30;99.90
16243;DHT22;11719;51.052;6.982;2024-01-15T06:46:42;8.10;99.90
16243;DHT22;11719;51.052;6.982;2024-01-15T06:49:09;8.30;99.90
16243;DHT22;11719;51.052;6.982;2024-01-15T06:51:35;8.40;99.90
16243;DHT22;11719;51.052;6.982;2024-01-15T06:54:04;8.50;99.90
16243;DHT22;11719;51.052;6.982;2024-01-15T06:56:32;8.40;99.90
16243;DHT22;11719;51.052;6.982;2024-01-15T06:58:58;8.40;99.90
16243;DHT22;11719;51.052;6.982;2024-01-15T07:01:26;8.50;99.90
16243;DHT22;11719;51.052;6.982;2024-01-15T07:03:52;8.40;99.90
16243;DHT22;11719;51.052;6.982;2024-01-15T07:06:18;8.40;99.90
16243;DHT22;11719;51.052;6.982;2024-01-15T07:08:44;8.50;99.90
16243;DHT22;11719;51.052;6.982;2024-01-15T07:11:10;8.50;99.90
16243;DHT22;11719;51.052;6.982;2024-01-15T07:13:38;8.40;99.90
16243;DHT22;11719;51.052;6.982;2024-01-15T07:16:04;8.30;99.90
16243;DHT22;11719;51.052;6.982;2024-01-15T07:18:37;8.20;99.90
16243;DHT22;11719;51.052;6.982;2024-01-15T07:21:03;7.90;99.90
16243;DHT22;11719;51.052;6.982;2024-01-15T07:23:31;7.70;99.90
16243;DHT22;11719;51.052;6.982;2024-01-15T07:26:00;7.20;99.90
16243;DHT22;11719;51.052;6.982;2024-01-15T07:28:29;7.20;99.90
16243;DHT22;11719;51.052;6.982;2024-01-15T07:30:58;7.50;99.90
16243;DHT22;11719;51.052;6.982;2024-01-15T07:33:26;7.60;99.90
16243;DHT22;11719;51.052;6.982;2024-01-15T07:35:52;7.70;99.90
16243;DHT22;11719;51.052;6.982;2024-01-15T07:38:18;7.90;99.90
16243;DHT22;11719;51.052;6.982;2024-01-15T07:40:43;8.10;99.90
16243;DHT22;11719;51.052;6.982;2024-01-15T07:43:10;8.40;99.90
16243;DHT22;11719;51.052;6.982;2024-01-15T07:45:35;8.40;99.90
16243;DHT22;11719;51.052;6.982;2024-01-15T07:48:10;8.60;99.90
16243;DHT22;11719;51.052;6.982;2024-01-15T07:50:36;8.70;99.90
16243;DHT22;11719;51.052;6.982;2024-01-15T07:53:05;8.80;99.90
16243;DHT22;11719;51.052;6.982;2024-01-15T07:55:31;8.80;99.90
16243;DHT22;11719;51.052;6.982;2024-01-15T07:57:57;8.80;99.90
16243;DHT22;11719;51.052;6.982;2024-01-15T08:00:25;9.00;99.90
16243;DHT22;11719;51.052;6.982;2024-01-15T08:02:53;9.20;99.90
16243;DHT22;11719;51.052;6.982;2024-01-15T08:05:19;9.20;99.90
16243;DHT22;11719;51.052;6.982;2024-01-15T08:07:50;9.20;99.90
16243;DHT22;11719;51.052;6.982;2024-01-15T08:10:16;9.10;99.90
16243;DHT22;11719;51.052;6.982;2024-01-15T08:12:42;9.10;99.90
16243;DHT22;11719;51.052;6.982;2024-01-15T08:15:08;9.00;99.90
16243;DHT22;11719;51.052;6.982;2024-01-15T08:17:34;9.10;99.90
16243;DHT22;11719;51.052;6.982;2024-01-15T08:19:59;9.00;99.90
16243;DHT22;11719;51.052;6.982;2024-01-15T08:22:26;9.20;99.90
16243;DHT22;11719;51.052;6.982;2024-01-15T08:24:52;9.20;99.90
16243;DHT22;11719;51.052;6.982;2024-01-15T08:27:19;9.50;99.90
16243;DHT22;11719;51.052;6.982;2024-01-15T08:29:45;9.60;99.90
16243;DHT22;11719;51.052;6.982;2024-01-15T08:32:11;9.70;99.90
16243;DHT22;11719;51.052;6.982;2024-01-15T08:34:39;9.40;99.90
16243;DHT22;11719;51.052;6.982;2024-01-15T08:37:12;9.50;99.90
16243;DHT22;11719;51.052;6.982;2024-01-15T08:39:38;9.30;99.90
16243;DHT22;11719;51.052;6.982;2024-01-15T08:42:05;9.20;99.90
16243;DHT22;11719;51.052;6.982;2024-01-15T08:44:31;9.20;99.90
16243;DHT22;11719;51.052;6.982;2024-01-15T08:46:56;9.20;99.90
16243;DHT22;11719;51.052;6.982;2024-01-15T08:49:22;9.30;99.90
16243;DHT22;11719;51.052;6.982;2024-01-15T08:51:48;9.10;99.90
16243;DHT22;11719;51.052;6.982;2024-01-15T08:54:14;9.20;99.90
16243;DHT22;11719;51.052;6.982;2024-01-15T08:56:40;9.30;99.90
16243;DHT22;11719;51.052;6.982;2024-01-15T08:59:06;9.30;99.90
16243;DHT22;11719;51.052;6.982;2024-01-15T09:01:32;9.40;99.90
16243;DHT22;11719;51.052;6.982;2024-01-15T09:04:01;9.40;99.90
16243;DHT22;11719;51.052;6.982;2024-01-15T09:06:26;9.20;99.90
16243;DHT22;11719;51.052;6.982;2024-01-15T09:08:58;9.00;99.90
16243;DHT22;11719;51.052;6.982;2024-01-15T09:11:23;8.70;99.90
16243;DHT22;11719;51.052;6.982;2024-01-15T09:13:50;8.60;99.90
16243;DHT22;11719;51.052;6.982;2024-01-15T09:16:17;8.70;99.90
16243;DHT22;11719;51.052;6.982;2024-01-15T09:18:46;9.10;99.90
16243;DHT22;11719;51.052;6.982;2024-01-15T09:21:15;9.00;99.90
16243;DHT22;11719;51.052;6.982;2024-01-15T09:23:41;9.00;99.90
16243;DHT22;11719;51.052;6.982;2024-01-15T09:26:20;8.60;99.90
16243;DHT22;11719;51.052;6.982;2024-01-15T09:28:46;8.20;99.90
16243;DHT22;11719;51.052;6.982;2024-01-15T09:31:12;8.20;99.90
16243;DHT22;11719;51.052;6.982;2024-01-15T09:33:37;8.20;99.90
16243;DHT22;11719;51.052;6.982;2024-01-15T09:36:12;8.20;99.90
16243;DHT22;11719;51.052;6.982;2024-01-15T09:38:40;8.20;99.90
16243;DHT22;11719;51.052;6.982;2024-01-15T09:41:07;8.00;99.90
16243;DHT22;11719;51.052;6.982;2024-01-15T09:43:38;8.20;99.90
16243;DHT22;11719;51.052;6.982;2024-01-15T09:46:04;8.00;99.90
16243;DHT22;11719;51.052;6.982;2024-01-15T09:48:30;7.90;99.90
16243;DHT22;11719;51.052;6.982;2024-01-15T09:51:02;7.50;99.90
16243;DHT22;11719;51.052;6.982;2024-01-15T09:53:28;7.50;99.90
16243;DHT22;11719;51.052;6.982;2024-01-15T09:55:58;6.90;99.90
16243;DHT22;11719;51.052;6.982;2024-01-15T09:58:25;6.70;99.90
16243;DHT22;11719;51.052;6.982;2024-01-15T10:00:52;6.60;99.90
16243;DHT22;11719;51.052;6.982;2024-01-15T10:03:18;6.70;99.90
16243;DHT22;11719;51.052;6.982;2024-01-15T10:05:44;6.60;99.90
16243;DHT22;11719;51.052;6.982;2024-01-15T10:08:11;6.40;99.90
16243;DHT22;11719;51.052;6.982;2024-01-15T10:10:37;6.80;99.90
16243;DHT22;11719;51.052;6.982;2024-01-15T10:13:06;6.50;99.90
16243;DHT22;11719;51.052;6.982;2024-01-15T10:15:35;6.60;99.90
16243;DHT22;11719;51.052;6.982;2024-01-15T10:18:03;6.60;99.90
16243;DHT22;11719;51.052;6.982;2024-01-15T10:20:32;6.60;99.90
16243;DHT22;11719;51.052;6.982;2024-01-15T10:22:58;6.70;99.90
16243;DHT22;11719;51.052;6.982;2024-01-15T10:25:24;6.50;99.90
16243;DHT22;11719;51.052;6.982;2024-01-15T10:28:04;6.30;99.90
16243;DHT22;11719;51.052;6.982;2024-01-15T10:30:30;6.00;99.90
16243;DHT22;11719;51.052;6.982;2024-01-15T10:32:58;5.90;99.90
16243;DHT22;11719;51.052;6.982;2024-01-15T10:35:34;5.90;99.90
16243;DHT22;11719;51.052;6.982;2024-01-15T10:38:00;6.10;99.90
16243;DHT22;11719;51.052;6.982;2024-01-15T10:40:28;6.10;99.90
16243;DHT22;11719;51.052;6.982;2024-01-15T10:42:54;6.30;99.90
16243;DHT22;11719;51.052;6.982;2024-01-15T10:45:20;6.10;99.90
16243;DHT22;11719;51.052;6.982;2024-01-15T10:47:46;6.30;99.90
16243;DHT22;11719;51.052;6.982;2024-01-15T10:50:12;6.40;99.90
16243;DHT22;11719;51.052;6.982;2024-01-15T10:52:39;6.30;99.90
16243;DHT22;11719;51.052;6.982;2024-01-15T10:55:09;6.20;99.90
16243;DHT22;11719;51.052;6.982;2024-01-15T10:57:41;6.50;99.90
16243;DHT22;11719;51.052;6.982;2024-01-15T11:00:07;6.50;99.90
16243;DHT22;11719;51.052;6.982;2024-01-15T11:02:40;6.50;99.90
16243;DHT22;11719;51.052;6.982;2024-01-15T11:05:07;6.40;99.90
16243;DHT22;11719;51.052;6.982;2024-01-15T11:07:33;6.30;99.90
16243;DHT22;11719;51.052;6.982;2024-01-15T11:09:58;6.50;99.90
16243;DHT22;11719;51.052;6.982;2024-01-15T11:12:25;6.40;99.90
16243;DHT22;11719;51.052;6.982;2024-01-15T11:14:50;6.50;99.90
16243;DHT22;11719;51.052;6.982;2024-01-15T11:17:17;6.30;99.90
16243;DHT22;11719;51.052;6.982;2024-01-15T11:19:48;6.30;99.90
16243;DHT22;11719;51.052;6.982;2024-01-15T11:24:55;6.70;99.90
16243;DHT22;11719;51.052;6.982;2024-01-15T11:27:40;6.70;99.90
16243;DHT22;11719;51.052;6.982;2024-01-15T11:30:13;6.80;99.90
16243;DHT22;11719;51.052;6.982;2024-01-15T11:32:39;7.20;99.90
16243;DHT22;11719;51.052;6.982;2024-01-15T11:35:09;7.20;99.90
16243;DHT22;11719;51.052;6.982;2024-01-15T11:42:46;7.00;99.90
16243;DHT22;11719;51.052;6.982;2024-01-15T11:45:22;7.00;99.90
16243;DHT22;11719;51.052;6.982;2024-01-15T11:50:43;6.70;99.90
16243;DHT22;11719;51.052;6.982;2024-01-15T11:55:58;6.60;99.90
16243;DHT22;11719;51.052;6.982;2024-01-15T11:58:25;6.90;99.90
16243;DHT22;11719;51.052;6.982;2024-01-15T12:00:51;6.80;99.90
16243;DHT22;11719;51.052;6.982;2024-01-15T12:03:20;7.00;99.90
16243;DHT22;11719;51.052;6.982;2024-01-15T12:05:46;7.10;99.90
16243;DHT22;11719;51.052;6.982;2024-01-15T12:08:24;7.30;99.90
16243;DHT22;11719;51.052;6.982;2024-01-15T12:10:52;7.20;99.90
16243;DHT22;11719;51.052;6.982;2024-01-15T12:13:17;7.30;99.90
16243;DHT22;11719;51.052;6.982;2024-01-15T12:15:50;7.40;99.90
16243;DHT22;11719;51.052;6.982;2024-01-15T12:18:18;7.50;99.90
16243;DHT22;11719;51.052;6.982;2024-01-15T12:20:44;7.40;99.90
16243;DHT22;11719;51.052;6.982;2024-01-15T12:23:14;7.30;99.90
16243;DHT22;11719;51.052;6.982;2024-01-15T12:25:43;7.20;99.90
16243;DHT22;11719;51.052;6.982;2024-01-15T12:28:10;7.50;99.90
16243;DHT22;11719;51.052;6.982;2024-01-15T12:30:36;7.80;99.90
16243;DHT22;11719;51.052;6.982;2024-01-15T12:33:07;7.80;99.90
16243;DHT22;11719;51.052;6.982;2024-01-15T12:35:34;8.20;99.90
16243;DHT22;11719;51.052;6.982;2024-01-15T12:38:03;8.20;99.90
16243;DHT22;11719;51.052;6.982;2024-01-15T12:40:32;8.00;99.90
16243;DHT22;11719;51.052;6.982;2024-01-15T12:43:00;7.50;99.90
16243;DHT22;11719;51.052;6.982;2024-01-15T12:45:27;7.30;99.90
16243;DHT22;11719;51.052;6.982;2024-01-15T12:47:55;7.00;99.90
16243;DHT22;11719;51.052;6.982;2024-01-15T12:50:24;6.90;99.90
16243;DHT22;11719;51.052;6.982;2024-01-15T12:52:50;6.70;99.90
16243;DHT22;11719;51.052;6.982;2024-01-15T12:55:17;6.80;99.90
16243;DHT22;11719;51.052;6.982;2024-01-15T12:57:42;6.90;99.90
16243;DHT22;11719;51.052;6.982;2024-01-15T13:00:09;7.20;99.90
16243;DHT22;11719;51.052;6.982;2024-01-15T13:02:42;7.00;99.90
16243;DHT22;11719;51.052;6.982;2024-01-15T13:05:09;7.10;99.90
16243;DHT22;11719;51.052;6.982;2024-01-15T13:07:36;7.30;99.90
16243;DHT22;11719;51.052;6.982;2024-01-15T13:10:02;7.00;99.90
16243;DHT22;11719;51.052;6.982;2024-01-15T13:12:29;6.90;99.90
16243;DHT22;11719;51.052;6.982;2024-01-15T13:14:55;6.70;99.90
16243;DHT22;11719;51.052;6.982;2024-01-15T13:17:21;6.40;99.90
16243;DHT22;11719;51.052;6.982;2024-01-15T13:19:47;6.50;99.90
16243;DHT22;11719;51.052;6.982;2024-01-15T13:22:13;6.60;99.90
16243;DHT22;11719;51.052;6.982;2024-01-15T13:24:39;6.70;99.90
16243;DHT22;11719;51.052;6.982;2024-01-15T13:27:05;6.40;99.90
16243;DHT22;11719;51.052;6.982;2024-01-15T13:29:34;6.60;99.90
16243;DHT22;11719;51.052;6.982;2024-01-15T13:32:00;6.90;99.90
16243;DHT22;11719;51.052;6.982;2024-01-15T13:34:25;7.00;99.90
16243;DHT22;11719;51.052;6.982;2024-01-15T13:36:51;7.20;99.90
16243;DHT22;11719;51.052;6.982;2024-01-15T13:39:18;7.20;99.90
16243;DHT22;11719;51.052;6.982;2024-01-15T13:41:49;7.10;99.90
16243;DHT22;11719;51.052;6.982;2024-01-15T13:44:21;7.50;99.90
16243;DHT22;11719;51.052;6.982;2024-01-15T13:46:47;7.80;99.90
16243;DHT22;11719;51.052;6.982;2024-01-15T13:49:12;7.90;99.90
16243;DHT22;11719;51.052;6.982;2024-01-15T13:51:39;8.00;99.90
16243;DHT22;11719;51.052;6.982;2024-01-15T13:54:05;7.60;99.90
16243;DHT22;11719;51.052;6.982;2024-01-15T13:56:31;7.30;99.90
16243;DHT22;11719;51.052;6.982;2024-01-15T13:58:58;7.50;99.90
16243;DHT22;11719;51.052;6.982;2024-01-15T14:01:25;7.60;99.90
16243;DHT22;11719;51.052;6.982;2024-01-15T14:03:50;7.60;99.90
16243;DHT22;11719;51.052;6.982;2024-01-15T14:06:20;7.40;99.90
16243;DHT22;11719;51.052;6.982;2024-01-15T14:08:45;7.10;99.90
16243;DHT22;11719;51.052;6.982;2024-01-15T14:11:12;6.90;99.90
16243;DHT22;11719;51.052;6.982;2024-01-15T14:13:38;6.90;99.90
16243;DHT22;11719;51.052;6.982;2024-01-15T14:16:03;6.90;99.90
16243;DHT22;11719;51.052;6.982;2024-01-15T14:18:30;6.90;99.90
16243;DHT22;11719;51.052;6.982;2024-01-15T14:20:58;6.70;99.90
16243;DHT22;11719;51.052;6.982;2024-01-15T14:23:24;6.90;99.90
16243;DHT22;11719;51.052;6.982;2024-01-15T14:25:49;6.80;99.90
16243;DHT22;11719;51.052;6.982;2024-01-15T14:28:15;6.60;99.90
16243;DHT22;11719;51.052;6.982;2024-01-15T14:30:41;6.70;99.90
16243;DHT22;11719;51.052;6.982;2024-01-15T14:33:07;6.30;99.90
16243;DHT22;11719;51.052;6.982;2024-01-15T14:35:36;6.20;99.90
16243;DHT22;11719;51.052;6.982;2024-01-15T14:38:02;6.50;99.90
16243;DHT22;11719;51.052;6.982;2024-01-15T14:40:28;6.60;99.90
16243;DHT22;11719;51.052;6.982;2024-01-15T14:42:55;6.50;99.90
16243;DHT22;11719;51.052;6.982;2024-01-15T14:45:21;6.50;99.90
16243;DHT22;11719;51.052;6.982;2024-01-15T14:47:55;6.20;99.90
16243;DHT22;11719;51.052;6.982;2024-01-15T14:50:25;6.30;99.90
16243;DHT22;11719;51.052;6.982;2024-01-15T14:52:51;6.70;99.90
16243;DHT22;11719;51.052;6.982;2024-01-15T14:55:17;6.70;99.90
16243;DHT22;11719;51.052;6.982;2024-01-15T14:57:43;6.70;99.90
16243;DHT22;11719;51.052;6.982;2024-01-15T15:00:11;7.00;99.90
16243;DHT22;11719;51.052;6.982;2024-01-15T15:02:38;6.90;99.90
16243;DHT22;11719;51.052;6.982;2024-01-15T15:05:07;6.80;99.90
16243;DHT22;11719;51.052;6.982;2024-01-15T15:07:33;6.70;99.90
16243;DHT22;11719;51.052;6.982;2024-01-15T15:10:08;6.50;99.90
16243;DHT22;11719;51.052;6.982;2024-01-15T15:12:34;6.40;99.90
16243;DHT22;11719;51.052;6.982;2024-01-15T15:15:00;6.50;99.90
16243;DHT22;11719;51.052;6.982;2024-01-15T15:17:26;6.50;99.90
16243;DHT22;11719;51.052;6.982;2024-01-15T15:19:52;6.20;99.90
16243;DHT22;11719;51.052;6.982;2024-01-15T15:22:21;6.20;99.90
16243;DHT22;11719;51.052;6.982;2024-01-15T15:24:50;6.20;99.90
16243;DHT22;11719;51.052;6.982;2024-01-15T15:27:21;6.20;99.90
16243;DHT22;11719;51.052;6.982;2024-01-15T15:29:47;6.10;99.90
16243;DHT22;11719;51.052;6.982;2024-01-15T15:32:18;6.00;99.90
16243;DHT22;11719;51.052;6.982;2024-01-15T15:34:44;5.70;99.90
16243;DHT22;11719;51.052;6.982;2024-01-15T15:37:11;5.40;99.90
16243;DHT22;11719;51.052;6.982;2024-01-15T15:39:37;5.30;99.90
16243;DHT22;11719;51.052;6.982;2024-01-15T15:42:03;5.30;99.90
16243;DHT22;11719;51.052;6.982;2024-01-15T15:44:34;5.20;99.90
16243;DHT22;11719;51.052;6.982;2024-01-15T15:47:00;5.20;99.90
16243;DHT22;11719;51.052;6.982;2024-01-15T15:49:26;5.20;99.90
16243;DHT22;11719;51.052;6.982;2024-01-15T15:51:54;5.20;99.90
16243;DHT22;11719;51.052;6.982;2024-01-15T15:54:20;5.10;99.90
16243;DHT22;11719;51.052;6.982;2024-01-15T15:56:45;5.10;99.90